Time;durP1;ratioP1;P1;durP2;ratioP2;P2;SDS_P1;SDS_P2;PMS_P1;PMS_P2;Temp;Humidity;BMP_temperature;BMP_pressure;BME280_temperature;BME280_humidity;BME280_pressure;Samples;Min_cycle;Max_cycle;Signal;HPM_P1;HPM_P2
2021/08/10 00:01:52;;;;;;;0.00;0.00;;;;;;;;;;5114755;28;20201;-77
2021/08/10 00:04:18;;;;;;;0.00;0.00;;;;;;;;;;5104183;28;20210;-77
2021/08/10 00:06:44;;;;;;;0.10;0.10;;;;;;;;;;5107062;28;20227;-77
2021/08/10 00:09:12;;;;;;;0.05;0.05;;;;;;;;;;5104157;28;20206;-77
2021/08/10 00:11:38;;;;;;;0.00;0.00;;;;;;;;;;5109776;28;20253;-76
2021/08/10 00:14:04;;;;;;;0.05;0.05;;;;;;;;;;5124018;28;20228;-78
2021/08/10 00:16:30;;;;;;;0.08;0.08;;;;;;;;;;5105289;28;20200;-77
2021/08/10 00:18:56;;;;;;;0.10;0.10;;;;;;;;;;5121038;28;20231;-77
2021/08/10 00:21:23;;;;;;;0.00;0.00;;;;;;;;;;5111780;28;20423;-76
2021/08/10 00:23:49;;;;;;;0.03;0.03;;;;;;;;;;5106986;28;20242;-76
2021/08/10 00:26:16;;;;;;;0.00;0.00;;;;;;;;;;5103998;28;20265;-76
2021/08/10 00:28:43;;;;;;;0.10;0.10;;;;;;;;;;5120733;28;20207;-76
2021/08/10 00:31:09;;;;;;;0.10;0.10;;;;;;;;;;5124528;28;20203;-76
2021/08/10 00:33:35;;;;;;;0.10;0.10;;;;;;;;;;5124561;28;20202;-78
2021/08/10 00:36:02;;;;;;;0.08;0.08;;;;;;;;;;5119509;28;20267;-77
2021/08/10 00:38:28;;;;;;;0.10;0.10;;;;;;;;;;5115297;28;20247;-77
2021/08/10 00:40:55;;;;;;;0.10;0.10;;;;;;;;;;5107424;28;20211;-76
2021/08/10 00:43:30;;;;;;;0.05;0.05;;;;;;;;;;5107508;28;20245;-77
2021/08/10 00:45:56;;;;;;;0.10;0.10;;;;;;;;;;5107456;28;20272;-76
2021/08/10 00:48:23;;;;;;;0.00;0.00;;;;;;;;;;5107744;28;20205;-78
2021/08/10 00:50:49;;;;;;;0.10;0.10;;;;;;;;;;5110195;28;20215;-78
2021/08/10 00:53:15;;;;;;;0.00;0.00;;;;;;;;;;5128238;28;20298;-77
2021/08/10 00:55:42;;;;;;;0.10;0.10;;;;;;;;;;5123817;28;20435;-77
2021/08/10 00:58:08;;;;;;;0.00;0.00;;;;;;;;;;5114564;28;20203;-77
2021/08/10 01:00:36;;;;;;;0.00;0.00;;;;;;;;;;5114799;28;20207;-77
2021/08/10 01:03:03;;;;;;;0.00;0.00;;;;;;;;;;5127408;28;20204;-77
2021/08/10 01:05:30;;;;;;;0.00;0.00;;;;;;;;;;5115907;28;20200;-77
2021/08/10 01:07:59;;;;;;;0.10;0.10;;;;;;;;;;5106845;28;20211;-76
2021/08/10 01:10:31;;;;;;;0.10;0.10;;;;;;;;;;5110635;28;20365;-77
2021/08/10 01:13:00;;;;;;;0.10;0.10;;;;;;;;;;5109461;28;20244;-77
2021/08/10 01:15:27;;;;;;;0.00;0.00;;;;;;;;;;5123183;28;20222;-77
2021/08/10 01:17:59;;;;;;;0.10;0.10;;;;;;;;;;5115939;27;20231;-77
2021/08/10 01:20:40;;;;;;;0.00;0.00;;;;;;;;;;5106937;28;20240;-76
2021/08/10 01:23:07;;;;;;;0.03;0.03;;;;;;;;;;5073332;28;20215;-77
2021/08/10 01:25:40;;;;;;;0.10;0.10;;;;;;;;;;5109512;28;20196;-77
2021/08/10 01:28:29;;;;;;;0.10;0.10;;;;;;;;;;5116040;28;20518;-77
2021/08/10 01:31:02;;;;;;;0.10;0.10;;;;;;;;;;5106904;28;20538;-75
2021/08/10 01:33:30;;;;;;;0.10;0.10;;;;;;;;;;5121012;28;20202;-75
2021/08/10 01:35:56;;;;;;;0.10;0.10;;;;;;;;;;5126580;28;20267;-76
2021/08/10 01:38:23;;;;;;;0.10;0.10;;;;;;;;;;5114908;28;20486;-76
2021/08/10 01:40:50;;;;;;;0.10;0.10;;;;;;;;;;5106045;28;20202;-77
2021/08/10 01:43:17;;;;;;;0.10;0.10;;;;;;;;;;5109781;28;20209;-75
2021/08/10 01:45:44;;;;;;;0.00;0.00;;;;;;;;;;5108254;28;20241;-76
2021/08/10 01:48:12;;;;;;;0.00;0.00;;;;;;;;;;5116285;28;20209;-75
2021/08/10 01:50:39;;;;;;;0.00;0.00;;;;;;;;;;5121398;28;20204;-76
2021/08/10 01:53:07;;;;;;;0.10;0.10;;;;;;;;;;5126739;28;20499;-76
2021/08/10 01:55:33;;;;;;;0.00;0.00;;;;;;;;;;5112561;28;20224;-76
2021/08/10 01:58:00;;;;;;;0.00;0.00;;;;;;;;;;5109361;28;20207;-77
2021/08/10 02:00:27;;;;;;;0.10;0.10;;;;;;;;;;5105964;28;20293;-76
2021/08/10 02:02:54;;;;;;;0.03;0.03;;;;;;;;;;5107490;28;20282;-76
2021/08/10 02:05:22;;;;;;;0.10;0.10;;;;;;;;;;5126936;28;20203;-76
2021/08/10 02:07:49;;;;;;;0.10;0.10;;;;;;;;;;5122353;28;20267;-76
2021/08/10 02:10:16;;;;;;;0.05;0.05;;;;;;;;;;5112034;28;20359;-76
2021/08/10 02:12:43;;;;;;;0.10;0.10;;;;;;;;;;5121606;28;20205;-76
2021/08/10 02:15:10;;;;;;;0.10;0.10;;;;;;;;;;5121880;28;20227;-77
2021/08/10 02:17:36;;;;;;;0.10;0.10;;;;;;;;;;5123019;28;20229;-76
2021/08/10 02:20:03;;;;;;;0.10;0.10;;;;;;;;;;5105787;28;20225;-77
2021/08/10 02:22:30;;;;;;;0.10;0.10;;;;;;;;;;5105474;28;20203;-77
2021/08/10 02:25:00;;;;;;;0.10;0.10;;;;;;;;;;5112772;28;20202;-76
2021/08/10 02:27:28;;;;;;;0.10;0.10;;;;;;;;;;5125734;28;20256;-77
2021/08/10 02:29:59;;;;;;;0.10;0.10;;;;;;;;;;5120787;28;20259;-76
2021/08/10 02:32:27;;;;;;;0.10;0.10;;;;;;;;;;5119500;28;20199;-76
2021/08/10 02:34:53;;;;;;;0.00;0.00;;;;;;;;;;5106448;27;20203;-76
2021/08/10 02:37:20;;;;;;;0.10;0.10;;;;;;;;;;5122286;28;20206;-76
2021/08/10 02:39:47;;;;;;;0.10;0.10;;;;;;;;;;5111141;28;20247;-75
2021/08/10 02:42:16;;;;;;;0.10;0.10;;;;;;;;;;5125130;28;20544;-76
2021/08/10 02:44:43;;;;;;;0.10;0.10;;;;;;;;;;5121827;28;20203;-76
2021/08/10 02:47:10;;;;;;;0.10;0.10;;;;;;;;;;5123022;28;20251;-76
2021/08/10 02:49:36;;;;;;;0.08;0.08;;;;;;;;;;5117675;28;20199;-76
2021/08/10 02:52:03;;;;;;;0.00;0.00;;;;;;;;;;5125253;28;20211;-76
2021/08/10 02:54:29;;;;;;;0.10;0.10;;;;;;;;;;5113626;28;20210;-77
2021/08/10 02:56:56;;;;;;;0.10;0.10;;;;;;;;;;5123234;28;20242;-77
2021/08/10 02:59:26;;;;;;;0.10;0.10;;;;;;;;;;5124486;28;20247;-76
2021/08/10 03:01:55;;;;;;;0.10;0.10;;;;;;;;;;5113569;28;20431;-76
2021/08/10 03:04:23;;;;;;;0.10;0.10;;;;;;;;;;5125167;28;20267;-77
2021/08/10 03:06:50;;;;;;;0.10;0.10;;;;;;;;;;5125112;28;20390;-77
2021/08/10 03:09:16;;;;;;;0.10;0.10;;;;;;;;;;5125185;28;20210;-77
2021/08/10 03:11:43;;;;;;;0.10;0.10;;;;;;;;;;5124885;28;20208;-77
2021/08/10 03:14:11;;;;;;;0.10;0.10;;;;;;;;;;5110570;28;20204;-77
2021/08/10 03:16:40;;;;;;;0.10;0.10;;;;;;;;;;5123334;28;20271;-77
2021/08/10 03:19:06;;;;;;;0.10;0.10;;;;;;;;;;5119146;28;20533;-77
2021/08/10 03:21:34;;;;;;;0.05;0.05;;;;;;;;;;5104641;28;20241;-77
2021/08/10 03:24:03;;;;;;;0.10;0.10;;;;;;;;;;5106315;28;20204;-77
2021/08/10 03:26:29;;;;;;;0.05;0.05;;;;;;;;;;5117068;28;20280;-77
2021/08/10 03:28:56;;;;;;;0.00;0.00;;;;;;;;;;5119192;28;20255;-76
2021/08/10 03:31:23;;;;;;;0.00;0.00;;;;;;;;;;5124032;28;20201;-77
2021/08/10 03:33:51;;;;;;;0.00;0.00;;;;;;;;;;5107802;28;20199;-76
2021/08/10 03:36:17;;;;;;;0.10;0.10;;;;;;;;;;5109672;28;20227;-77
2021/08/10 03:38:44;;;;;;;0.03;0.03;;;;;;;;;;5124156;28;20202;-77
2021/08/10 03:41:11;;;;;;;0.00;0.00;;;;;;;;;;5112628;28;20206;-77
2021/08/10 03:43:37;;;;;;;0.10;0.10;;;;;;;;;;5104017;28;20247;-77
2021/08/10 03:46:05;;;;;;;0.08;0.08;;;;;;;;;;5109708;28;20260;-77
2021/08/10 03:48:34;;;;;;;0.10;0.10;;;;;;;;;;5113450;28;20195;-77
2021/08/10 03:51:02;;;;;;;0.10;0.10;;;;;;;;;;5112701;28;20209;-77
2021/08/10 03:53:30;;;;;;;0.10;0.10;;;;;;;;;;5110483;28;20248;-76
2021/08/10 03:55:57;;;;;;;0.10;0.10;;;;;;;;;;5111122;28;20271;-76
2021/08/10 03:58:24;;;;;;;0.10;0.10;;;;;;;;;;5123309;28;20332;-75
2021/08/10 04:00:51;;;;;;;0.08;0.08;;;;;;;;;;5110141;28;20225;-76
2021/08/10 04:03:18;;;;;;;0.03;0.03;;;;;;;;;;5110085;28;20202;-77
2021/08/10 04:05:46;;;;;;;0.10;0.10;;;;;;;;;;5112481;28;20228;-78
2021/08/10 04:08:15;;;;;;;0.05;0.05;;;;;;;;;;5123152;28;20190;-77
2021/08/10 04:10:41;;;;;;;0.00;0.00;;;;;;;;;;5107746;28;20211;-77
2021/08/10 04:13:08;;;;;;;0.10;0.10;;;;;;;;;;5124640;28;20247;-77
2021/08/10 04:15:37;;;;;;;0.10;0.10;;;;;;;;;;5121763;28;20198;-77
2021/08/10 04:18:04;;;;;;;0.00;0.00;;;;;;;;;;5112509;28;20261;-76
2021/08/10 04:20:30;;;;;;;0.10;0.10;;;;;;;;;;5118444;28;20203;-79
2021/08/10 04:22:56;;;;;;;0.10;0.10;;;;;;;;;;5109820;28;20202;-78
2021/08/10 04:25:24;;;;;;;0.10;0.10;;;;;;;;;;5110617;28;20202;-77
2021/08/10 04:27:50;;;;;;;0.10;0.10;;;;;;;;;;5114152;28;20508;-77
2021/08/10 04:30:17;;;;;;;0.05;0.05;;;;;;;;;;5111581;28;20380;-78
2021/08/10 04:32:43;;;;;;;0.10;0.10;;;;;;;;;;5112347;28;20197;-76
2021/08/10 04:35:09;;;;;;;0.10;0.10;;;;;;;;;;5114814;28;20206;-77
2021/08/10 04:37:36;;;;;;;0.03;0.03;;;;;;;;;;5118094;28;20225;-76
2021/08/10 04:40:03;;;;;;;0.10;0.10;;;;;;;;;;5113514;28;20190;-77
2021/08/10 04:42:31;;;;;;;0.07;0.07;;;;;;;;;;5104016;28;20260;-77
2021/08/10 04:44:57;;;;;;;0.00;0.00;;;;;;;;;;5117883;28;20243;-76
2021/08/10 04:47:23;;;;;;;0.10;0.10;;;;;;;;;;5109850;28;20235;-76
2021/08/10 04:49:50;;;;;;;0.03;0.03;;;;;;;;;;5105134;28;20199;-76
2021/08/10 04:52:16;;;;;;;0.03;0.03;;;;;;;;;;5110526;28;20236;-76
2021/08/10 04:54:42;;;;;;;0.00;0.00;;;;;;;;;;5123926;28;20202;-76
2021/08/10 04:57:08;;;;;;;0.10;0.10;;;;;;;;;;5106292;28;20231;-78
2021/08/10 04:59:36;;;;;;;0.05;0.05;;;;;;;;;;5110079;28;20206;-77
2021/08/10 05:02:02;;;;;;;0.00;0.00;;;;;;;;;;5109160;28;20499;-76
2021/08/10 05:04:29;;;;;;;0.00;0.00;;;;;;;;;;5111090;28;20207;-75
2021/08/10 05:06:55;;;;;;;0.10;0.10;;;;;;;;;;5117537;28;20222;-77
2021/08/10 05:09:21;;;;;;;0.10;0.10;;;;;;;;;;5103583;28;20539;-77
2021/08/10 05:11:47;;;;;;;0.10;0.10;;;;;;;;;;5120565;28;20202;-77
2021/08/10 05:14:14;;;;;;;0.10;0.10;;;;;;;;;;5122983;28;20383;-76
2021/08/10 05:16:41;;;;;;;0.10;0.10;;;;;;;;;;5114856;28;20219;-76
2021/08/10 05:19:07;;;;;;;0.10;0.10;;;;;;;;;;5110776;28;20275;-77
2021/08/10 05:21:34;;;;;;;0.10;0.10;;;;;;;;;;5121970;28;20202;-76
2021/08/10 05:24:00;;;;;;;0.10;0.10;;;;;;;;;;5116108;28;20209;-77
2021/08/10 05:26:26;;;;;;;0.00;0.00;;;;;;;;;;5114528;28;20202;-75
2021/08/10 05:28:53;;;;;;;0.05;0.05;;;;;;;;;;5119382;28;20199;-77
2021/08/10 05:31:19;;;;;;;0.00;0.00;;;;;;;;;;5120920;28;20199;-77
2021/08/10 05:33:46;;;;;;;0.00;0.00;;;;;;;;;;5106702;28;20210;-76
2021/08/10 05:36:13;;;;;;;0.10;0.10;;;;;;;;;;5121888;28;20522;-75
2021/08/10 05:38:42;;;;;;;0.00;0.00;;;;;;;;;;5106462;28;20418;-74
2021/08/10 05:41:08;;;;;;;0.05;0.05;;;;;;;;;;5110187;28;20427;-75
2021/08/10 05:43:35;;;;;;;0.08;0.08;;;;;;;;;;5111968;28;20205;-75
2021/08/10 05:46:01;;;;;;;0.10;0.10;;;;;;;;;;5119310;28;20227;-76
2021/08/10 05:48:27;;;;;;;0.00;0.00;;;;;;;;;;5106669;28;20202;-75
2021/08/10 05:50:56;;;;;;;0.08;0.08;;;;;;;;;;5112977;28;20290;-75
2021/08/10 05:53:22;;;;;;;0.10;0.10;;;;;;;;;;5112703;28;20210;-77
2021/08/10 05:55:49;;;;;;;0.03;0.03;;;;;;;;;;5115914;28;20205;-77
2021/08/10 05:58:15;;;;;;;0.10;0.10;;;;;;;;;;5109144;28;20201;-76
2021/08/10 06:00:41;;;;;;;0.05;0.05;;;;;;;;;;5106009;28;20207;-77
2021/08/10 06:03:07;;;;;;;0.00;0.00;;;;;;;;;;5115455;28;20407;-76
2021/08/10 06:05:34;;;;;;;0.08;0.08;;;;;;;;;;5118955;28;20378;-77
2021/08/10 06:08:02;;;;;;;0.00;0.00;;;;;;;;;;5120424;28;20209;-77
2021/08/10 06:10:28;;;;;;;0.05;0.05;;;;;;;;;;5111872;28;20418;-77
2021/08/10 06:12:54;;;;;;;0.00;0.00;;;;;;;;;;5122562;28;20541;-77
2021/08/10 06:15:20;;;;;;;0.10;0.10;;;;;;;;;;5125786;28;20202;-76
2021/08/10 06:17:47;;;;;;;0.08;0.08;;;;;;;;;;5126065;28;20276;-77
2021/08/10 06:20:13;;;;;;;0.10;0.10;;;;;;;;;;5126892;28;20512;-77
2021/08/10 06:22:39;;;;;;;0.00;0.00;;;;;;;;;;5108219;28;20391;-77
2021/08/10 06:25:08;;;;;;;0.10;0.10;;;;;;;;;;5116688;28;20491;-76
2021/08/10 06:27:34;;;;;;;0.00;0.00;;;;;;;;;;5115752;28;20256;-77
2021/08/10 06:30:01;;;;;;;0.03;0.03;;;;;;;;;;5126327;28;20317;-77
2021/08/10 06:32:28;;;;;;;0.10;0.10;;;;;;;;;;5124901;28;20207;-76
2021/08/10 06:34:54;;;;;;;0.10;0.10;;;;;;;;;;5119231;28;20207;-76
2021/08/10 06:37:20;;;;;;;0.10;0.10;;;;;;;;;;5106821;28;20263;-76
2021/08/10 06:39:46;;;;;;;0.20;0.20;;;;;;;;;;5106255;28;20520;-77
2021/08/10 06:42:14;;;;;;;0.10;0.10;;;;;;;;;;5115177;28;20202;-74
2021/08/10 06:44:40;;;;;;;0.08;0.08;;;;;;;;;;5121858;28;20203;-77
2021/08/10 06:47:06;;;;;;;0.00;0.00;;;;;;;;;;5117255;28;20282;-77
2021/08/10 06:49:33;;;;;;;0.10;0.10;;;;;;;;;;5120616;28;20211;-77
2021/08/10 06:51:59;;;;;;;0.05;0.05;;;;;;;;;;5105602;28;20204;-76
2021/08/10 06:54:25;;;;;;;0.10;0.10;;;;;;;;;;5106349;28;20490;-75
2021/08/10 06:56:51;;;;;;;0.00;0.00;;;;;;;;;;5118689;28;20218;-76
2021/08/10 06:59:19;;;;;;;0.00;0.00;;;;;;;;;;5114450;28;20375;-75
2021/08/10 07:01:45;;;;;;;0.00;0.00;;;;;;;;;;5121034;28;20470;-77
2021/08/10 07:04:11;;;;;;;0.05;0.05;;;;;;;;;;5111593;28;20218;-76
2021/08/10 07:06:38;;;;;;;0.10;0.10;;;;;;;;;;5120521;28;20262;-72
2021/08/10 07:09:06;;;;;;;0.10;0.10;;;;;;;;;;5105106;28;20240;-71
2021/08/10 07:11:33;;;;;;;0.03;0.03;;;;;;;;;;5120148;28;20207;-74
2021/08/10 07:14:00;;;;;;;0.00;0.00;;;;;;;;;;5109582;28;20207;-72
2021/08/10 07:16:29;;;;;;;0.10;0.10;;;;;;;;;;5121795;28;20204;-72
2021/08/10 07:18:55;;;;;;;0.03;0.03;;;;;;;;;;5114247;28;20227;-72
2021/08/10 07:21:22;;;;;;;0.00;0.00;;;;;;;;;;5115790;28;20245;-74
2021/08/10 07:23:48;;;;;;;0.10;0.10;;;;;;;;;;5118802;28;20203;-73
2021/08/10 07:26:15;;;;;;;0.10;0.10;;;;;;;;;;5104660;28;20215;-73
2021/08/10 07:28:41;;;;;;;0.10;0.10;;;;;;;;;;5110000;28;20199;-73
2021/08/10 07:31:07;;;;;;;0.10;0.10;;;;;;;;;;5114293;27;20368;-73
2021/08/10 07:33:35;;;;;;;0.00;0.00;;;;;;;;;;5115351;28;20209;-72
2021/08/10 07:36:02;;;;;;;0.10;0.10;;;;;;;;;;5122394;28;20228;-71
2021/08/10 07:38:28;;;;;;;0.10;0.10;;;;;;;;;;5113423;28;20231;-72
2021/08/10 07:40:55;;;;;;;0.00;0.00;;;;;;;;;;5117860;28;20261;-73
2021/08/10 07:43:21;;;;;;;0.00;0.00;;;;;;;;;;5107410;28;20210;-73
2021/08/10 07:45:47;;;;;;;0.05;0.05;;;;;;;;;;5120006;28;20266;-73
2021/08/10 07:48:15;;;;;;;0.00;0.00;;;;;;;;;;5119638;28;20203;-75
2021/08/10 07:50:43;;;;;;;0.10;0.10;;;;;;;;;;5110410;28;20247;-74
2021/08/10 07:53:09;;;;;;;0.10;0.10;;;;;;;;;;5119845;28;20206;-72
2021/08/10 07:55:36;;;;;;;0.08;0.08;;;;;;;;;;5118831;28;20203;-72
2021/08/10 07:58:02;;;;;;;0.10;0.10;;;;;;;;;;5115520;28;20231;-74
2021/08/10 08:00:29;;;;;;;0.08;0.08;;;;;;;;;;5110967;28;20207;-72
2021/08/10 08:02:55;;;;;;;0.10;0.10;;;;;;;;;;5112768;28;20203;-72
2021/08/10 08:05:22;;;;;;;0.03;0.03;;;;;;;;;;5117137;28;20275;-71
2021/08/10 08:07:49;;;;;;;0.03;0.03;;;;;;;;;;5124461;28;20212;-72
2021/08/10 08:10:15;;;;;;;0.00;0.00;;;;;;;;;;5119335;28;20392;-69
2021/08/10 08:12:42;;;;;;;0.10;0.10;;;;;;;;;;5106786;28;20255;-69
2021/08/10 08:15:08;;;;;;;0.00;0.00;;;;;;;;;;5102884;28;20202;-69
2021/08/10 08:17:34;;;;;;;0.10;0.10;;;;;;;;;;5107684;28;20243;-69
2021/08/10 08:20:01;;;;;;;0.10;0.10;;;;;;;;;;5117567;28;20420;-68
2021/08/10 08:22:28;;;;;;;0.00;0.00;;;;;;;;;;5112324;28;20430;-68
2021/08/10 08:24:56;;;;;;;0.10;0.10;;;;;;;;;;5107787;28;20246;-68
2021/08/10 08:27:22;;;;;;;0.00;0.00;;;;;;;;;;5118095;28;20205;-66
2021/08/10 08:29:48;;;;;;;0.00;0.00;;;;;;;;;;5118793;28;20205;-68
2021/08/10 08:32:14;;;;;;;0.00;0.00;;;;;;;;;;5108660;28;20205;-68
2021/08/10 08:34:41;;;;;;;0.10;0.10;;;;;;;;;;5107738;28;20272;-68
2021/08/10 08:37:07;;;;;;;0.00;0.00;;;;;;;;;;5112538;28;20224;-68
2021/08/10 08:39:33;;;;;;;0.00;0.00;;;;;;;;;;5104788;28;20208;-69
2021/08/10 08:42:02;;;;;;;0.10;0.10;;;;;;;;;;5112867;28;20247;-74
2021/08/10 08:44:34;;;;;;;0.00;0.00;;;;;;;;;;5110251;28;20389;-72
2021/08/10 08:47:00;;;;;;;0.00;0.00;;;;;;;;;;5110056;28;20201;-72
2021/08/10 08:49:27;;;;;;;0.08;0.08;;;;;;;;;;5113450;28;20215;-73
2021/08/10 08:51:54;;;;;;;0.10;0.10;;;;;;;;;;5115874;28;20251;-73
2021/08/10 08:54:20;;;;;;;0.00;0.00;;;;;;;;;;5117627;28;20202;-71
2021/08/10 08:56:48;;;;;;;0.03;0.03;;;;;;;;;;5122939;28;20202;-71
2021/08/10 08:59:17;;;;;;;0.00;0.00;;;;;;;;;;5118016;28;20423;-71
2021/08/10 09:01:43;;;;;;;0.10;0.10;;;;;;;;;;5116280;28;20274;-73
2021/08/10 09:04:10;;;;;;;0.03;0.03;;;;;;;;;;5113431;28;20207;-71
2021/08/10 09:06:36;;;;;;;0.03;0.03;;;;;;;;;;5112292;28;20213;-70
2021/08/10 09:09:19;;;;;;;0.00;0.00;;;;;;;;;;5118698;28;20237;-71
2021/08/10 09:11:47;;;;;;;0.03;0.03;;;;;;;;;;5111183;28;20245;-71
2021/08/10 09:14:13;;;;;;;0.00;0.00;;;;;;;;;;5109306;28;20206;-71
2021/08/10 09:16:43;;;;;;;0.00;0.00;;;;;;;;;;5108717;28;20251;-70
2021/08/10 09:19:09;;;;;;;0.10;0.10;;;;;;;;;;5109138;28;20250;-70
2021/08/10 09:21:36;;;;;;;0.00;0.00;;;;;;;;;;5107832;28;20208;-71
2021/08/10 09:24:02;;;;;;;0.00;0.00;;;;;;;;;;5106379;28;20230;-69
2021/08/10 09:26:37;;;;;;;0.00;0.00;;;;;;;;;;5114570;28;20243;-69
2021/08/10 09:29:04;;;;;;;0.00;0.00;;;;;;;;;;5117147;27;20196;-70
2021/08/10 09:31:35;;;;;;;0.00;0.00;;;;;;;;;;5125072;27;20203;-69
2021/08/10 09:34:03;;;;;;;0.05;0.05;;;;;;;;;;5111921;28;20274;-72
2021/08/10 09:36:30;;;;;;;0.10;0.10;;;;;;;;;;5109960;28;20280;-69
2021/08/10 09:38:57;;;;;;;0.00;0.00;;;;;;;;;;5110777;28;20217;-69
2021/08/10 09:41:24;;;;;;;0.10;0.10;;;;;;;;;;5106219;28;20493;-69
2021/08/10 09:43:51;;;;;;;0.00;0.00;;;;;;;;;;5114169;28;20448;-69
2021/08/10 09:46:17;;;;;;;0.10;0.10;;;;;;;;;;5108986;28;20208;-69
2021/08/10 09:48:52;;;;;;;0.20;0.20;;;;;;;;;;5108067;28;20202;-69
2021/08/10 09:51:22;;;;;;;0.00;0.00;;;;;;;;;;5106131;28;20232;-69
2021/08/10 09:53:54;;;;;;;0.10;0.10;;;;;;;;;;5110843;28;20208;-71
2021/08/10 09:56:20;;;;;;;0.10;0.10;;;;;;;;;;5109151;28;20206;-70
2021/08/10 09:58:58;;;;;;;0.05;0.05;;;;;;;;;;5105460;28;20232;-69
2021/08/10 10:01:31;;;;;;;0.10;0.10;;;;;;;;;;5120156;28;20207;-70
2021/08/10 10:04:08;;;;;;;0.00;0.00;;;;;;;;;;5106134;28;20199;-70
2021/08/10 10:06:35;;;;;;;0.00;0.00;;;;;;;;;;5124024;28;20229;-69
2021/08/10 10:09:02;;;;;;;0.10;0.10;;;;;;;;;;5105543;28;20308;-68
2021/08/10 10:11:31;;;;;;;0.00;0.00;;;;;;;;;;5120479;28;20201;-69
2021/08/10 10:13:57;;;;;;;0.00;0.00;;;;;;;;;;5111663;27;20216;-70
2021/08/10 10:16:24;;;;;;;0.05;0.05;;;;;;;;;;5126455;28;20246;-70
2021/08/10 10:18:50;;;;;;;0.00;0.00;;;;;;;;;;5126226;28;20421;-70
2021/08/10 10:21:19;;;;;;;0.00;0.00;;;;;;;;;;5126175;27;20243;-69
2021/08/10 10:23:49;;;;;;;0.00;0.00;;;;;;;;;;5126023;28;20402;-69
2021/08/10 10:26:15;;;;;;;0.00;0.00;;;;;;;;;;5125973;28;20270;-69
2021/08/10 10:28:41;;;;;;;0.10;0.10;;;;;;;;;;5113385;28;20380;-68
2021/08/10 10:31:08;;;;;;;0.00;0.00;;;;;;;;;;5105651;28;20209;-71
2021/08/10 10:33:35;;;;;;;0.10;0.10;;;;;;;;;;5115899;28;20198;-70
2021/08/10 10:36:02;;;;;;;0.00;0.00;;;;;;;;;;5125942;28;20548;-70
2021/08/10 10:38:29;;;;;;;0.10;0.10;;;;;;;;;;5125916;28;20536;-71
2021/08/10 10:40:58;;;;;;;0.00;0.00;;;;;;;;;;5110775;28;20485;-70
2021/08/10 10:43:24;;;;;;;0.00;0.00;;;;;;;;;;5112976;28;20247;-70
2021/08/10 10:45:53;;;;;;;0.08;0.08;;;;;;;;;;5125575;28;20208;-69
2021/08/10 10:48:38;;;;;;;0.00;0.00;;;;;;;;;;5125719;28;20242;-70
2021/08/10 10:51:07;;;;;;;0.10;0.10;;;;;;;;;;5111039;28;20205;-69
2021/08/10 10:53:34;;;;;;;0.00;0.00;;;;;;;;;;5118487;28;20416;-69
2021/08/10 10:56:01;;;;;;;0.00;0.00;;;;;;;;;;5117931;28;20204;-69
2021/08/10 10:58:29;;;;;;;0.00;0.00;;;;;;;;;;5119922;28;20317;-69
2021/08/10 11:01:15;;;;;;;0.00;0.00;;;;;;;;;;5116596;28;20205;-71
2021/08/10 11:03:44;;;;;;;0.03;0.03;;;;;;;;;;5110845;28;20284;-69
2021/08/10 11:06:28;;;;;;;0.10;0.10;;;;;;;;;;5124743;28;20251;-68
2021/08/10 11:08:54;;;;;;;0.00;0.00;;;;;;;;;;5111895;28;20222;-69
2021/08/10 11:11:35;;;;;;;0.00;0.00;;;;;;;;;;5114921;28;20208;-69
2021/08/10 11:14:03;;;;;;;0.08;0.08;;;;;;;;;;5123804;28;20423;-69
2021/08/10 11:16:53;;;;;;;0.00;0.00;;;;;;;;;;5113966;28;20431;-70
2021/08/10 11:19:32;;;;;;;0.10;0.10;;;;;;;;;;5102738;28;20234;-73
2021/08/10 11:22:20;;;;;;;0.00;0.00;;;;;;;;;;5105990;28;20243;-74
2021/08/10 11:24:48;;;;;;;0.10;0.10;;;;;;;;;;5106953;28;20223;-73
2021/08/10 11:27:28;;;;;;;0.00;0.00;;;;;;;;;;5113062;28;20423;-73
2021/08/10 11:29:56;;;;;;;0.00;0.00;;;;;;;;;;5112406;28;20239;-70
2021/08/10 11:32:38;;;;;;;0.00;0.00;;;;;;;;;;5107166;28;20213;-68
2021/08/10 11:35:24;;;;;;;0.00;0.00;;;;;;;;;;5119968;28;20221;-69
2021/08/10 11:38:06;;;;;;;0.00;0.00;;;;;;;;;;5117569;28;20256;-68
2021/08/10 11:40:47;;;;;;;0.00;0.00;;;;;;;;;;5119538;28;20207;-70
2021/08/10 11:43:13;;;;;;;0.00;0.00;;;;;;;;;;5119945;28;20391;-69
2021/08/10 11:45:41;;;;;;;0.00;0.00;;;;;;;;;;5120933;28;20213;-68
2021/08/10 11:48:08;;;;;;;0.00;0.00;;;;;;;;;;5118739;28;20207;-68
2021/08/10 11:50:35;;;;;;;0.00;0.00;;;;;;;;;;5120059;28;20201;-69
2021/08/10 11:53:02;;;;;;;0.00;0.00;;;;;;;;;;5119138;28;20212;-68
2021/08/10 11:55:30;;;;;;;0.05;0.05;;;;;;;;;;5120289;28;20213;-68
2021/08/10 11:57:57;;;;;;;0.10;0.10;;;;;;;;;;5119109;28;20224;-69
2021/08/10 12:00:24;;;;;;;0.05;0.05;;;;;;;;;;5118999;28;20213;-70
2021/08/10 12:02:52;;;;;;;0.10;0.10;;;;;;;;;;5119933;28;20210;-70
2021/08/10 12:05:19;;;;;;;0.35;0.35;;;;;;;;;;5119202;28;20602;-69
2021/08/10 12:07:49;;;;;;;0.10;0.10;;;;;;;;;;5119377;28;20225;-68
2021/08/10 12:10:20;;;;;;;0.00;0.00;;;;;;;;;;5117558;28;20228;-68
2021/08/10 12:12:46;;;;;;;0.00;0.00;;;;;;;;;;5120007;28;20205;-69
2021/08/10 12:15:32;;;;;;;0.00;0.00;;;;;;;;;;5119321;28;20206;-69
2021/08/10 12:18:00;;;;;;;0.00;0.00;;;;;;;;;;5120669;28;20228;-69
2021/08/10 12:20:26;;;;;;;0.00;0.00;;;;;;;;;;5119234;28;20210;-67
2021/08/10 12:22:59;;;;;;;0.00;0.00;;;;;;;;;;5119472;28;20465;-68
2021/08/10 12:25:25;;;;;;;0.00;0.00;;;;;;;;;;5119948;28;20202;-68
2021/08/10 12:28:00;;;;;;;0.00;0.00;;;;;;;;;;5119095;28;20206;-68
2021/08/10 12:30:26;;;;;;;0.10;0.10;;;;;;;;;;5117904;28;20209;-67
2021/08/10 12:32:52;;;;;;;0.00;0.00;;;;;;;;;;5123634;28;20202;-68
2021/08/10 12:35:22;;;;;;;0.00;0.00;;;;;;;;;;5124006;28;20214;-69
2021/08/10 12:37:49;;;;;;;0.30;0.30;;;;;;;;;;5124189;28;20255;-69
2021/08/10 12:40:17;;;;;;;0.00;0.00;;;;;;;;;;5122823;28;20459;-69
2021/08/10 12:42:43;;;;;;;0.43;0.43;;;;;;;;;;5122188;28;20232;-71
2021/08/10 12:45:10;;;;;;;0.00;0.00;;;;;;;;;;5124371;28;20274;-69
2021/08/10 12:47:37;;;;;;;0.00;0.00;;;;;;;;;;5122557;28;20205;-69
2021/08/10 12:50:21;;;;;;;0.00;0.00;;;;;;;;;;5124198;28;20216;-69
2021/08/10 12:52:48;;;;;;;0.03;0.03;;;;;;;;;;5123803;28;20225;-70
2021/08/10 12:55:15;;;;;;;0.00;0.00;;;;;;;;;;5123910;28;20202;-69
2021/08/10 12:57:41;;;;;;;0.10;0.10;;;;;;;;;;5122455;28;20195;-69
2021/08/10 13:00:13;;;;;;;0.00;0.00;;;;;;;;;;5122668;28;20544;-69
2021/08/10 13:02:40;;;;;;;0.00;0.00;;;;;;;;;;5122741;28;20213;-70
2021/08/10 13:05:09;;;;;;;0.00;0.00;;;;;;;;;;5123884;27;20221;-69
2021/08/10 13:07:35;;;;;;;0.00;0.00;;;;;;;;;;5123277;27;20238;-71
2021/08/10 13:10:04;;;;;;;0.00;0.00;;;;;;;;;;5123383;28;20206;-69
2021/08/10 13:12:31;;;;;;;0.00;0.00;;;;;;;;;;5123682;28;20340;-68
2021/08/10 13:15:02;;;;;;;0.00;0.00;;;;;;;;;;5124247;27;20270;-69
2021/08/10 13:17:34;;;;;;;0.00;0.00;;;;;;;;;;5121794;28;20198;-70
2021/08/10 13:20:04;;;;;;;0.00;0.00;;;;;;;;;;5123025;28;20222;-71
2021/08/10 13:22:51;;;;;;;0.00;0.00;;;;;;;;;;5123105;28;20277;-70
2021/08/10 13:25:20;;;;;;;0.00;0.00;;;;;;;;;;5116957;28;20202;-69
2021/08/10 13:27:47;;;;;;;0.00;0.00;;;;;;;;;;5123049;28;20454;-69
2021/08/10 13:30:31;;;;;;;0.00;0.00;;;;;;;;;;5123391;28;20202;-72
2021/08/10 13:33:01;;;;;;;0.00;0.00;;;;;;;;;;5122499;28;20202;-69
2021/08/10 13:35:27;;;;;;;0.00;0.00;;;;;;;;;;5123997;28;20213;-70
2021/08/10 13:37:53;;;;;;;0.00;0.00;;;;;;;;;;5124844;28;20205;-71
2021/08/10 13:40:21;;;;;;;0.00;0.00;;;;;;;;;;5123275;28;20272;-69
2021/08/10 13:42:47;;;;;;;0.00;0.00;;;;;;;;;;5121702;28;20489;-72
2021/08/10 13:45:13;;;;;;;0.00;0.00;;;;;;;;;;5123007;28;20244;-70
2021/08/10 13:47:40;;;;;;;0.00;0.00;;;;;;;;;;5123187;28;20512;-69
2021/08/10 13:50:07;;;;;;;0.08;0.08;;;;;;;;;;5123340;28;20205;-71
2021/08/10 13:52:33;;;;;;;0.00;0.00;;;;;;;;;;5123718;28;20425;-70
2021/08/10 13:54:59;;;;;;;0.00;0.00;;;;;;;;;;5122522;28;20210;-70
2021/08/10 13:57:27;;;;;;;0.03;0.03;;;;;;;;;;5122641;28;20220;-72
2021/08/10 13:59:53;;;;;;;0.00;0.00;;;;;;;;;;5120758;28;20231;-70
2021/08/10 14:02:20;;;;;;;0.10;0.10;;;;;;;;;;5122910;28;20229;-72
2021/08/10 14:04:47;;;;;;;0.00;0.00;;;;;;;;;;5122367;28;20374;-71
2021/08/10 14:07:13;;;;;;;0.00;0.00;;;;;;;;;;5122052;28;20206;-67
2021/08/10 14:09:40;;;;;;;0.05;0.05;;;;;;;;;;5122217;28;20397;-69
2021/08/10 14:12:07;;;;;;;0.00;0.00;;;;;;;;;;5122942;28;20214;-70
2021/08/10 14:14:35;;;;;;;0.00;0.00;;;;;;;;;;5121984;28;20201;-70
2021/08/10 14:17:01;;;;;;;0.00;0.00;;;;;;;;;;5122562;28;20206;-72
2021/08/10 14:19:27;;;;;;;0.00;0.00;;;;;;;;;;5122869;28;20233;-70
2021/08/10 14:21:54;;;;;;;0.00;0.00;;;;;;;;;;5123056;28;20203;-69
2021/08/10 14:24:20;;;;;;;0.00;0.00;;;;;;;;;;5121352;28;20274;-69
2021/08/10 14:26:46;;;;;;;0.00;0.00;;;;;;;;;;5121381;28;20210;-69
2021/08/10 14:29:13;;;;;;;0.00;0.00;;;;;;;;;;5121887;28;20202;-69
2021/08/10 14:31:40;;;;;;;0.00;0.00;;;;;;;;;;5122690;27;20402;-69
2021/08/10 14:34:07;;;;;;;0.00;0.00;;;;;;;;;;5121755;28;20269;-70
2021/08/10 14:36:33;;;;;;;0.08;0.08;;;;;;;;;;5121051;28;20202;-69
2021/08/10 14:38:59;;;;;;;0.03;0.03;;;;;;;;;;5122320;28;21029;-69
2021/08/10 14:41:26;;;;;;;0.10;0.10;;;;;;;;;;5121782;28;21226;-69
2021/08/10 14:43:52;;;;;;;0.08;0.08;;;;;;;;;;5120067;28;20428;-68
2021/08/10 14:46:18;;;;;;;0.00;0.00;;;;;;;;;;5122396;28;20206;-69
2021/08/10 14:48:46;;;;;;;0.00;0.00;;;;;;;;;;5122967;28;20529;-68